Time;durP1;ratioP1;P1;durP2;ratioP2;P2;SDS_P1;SDS_P2;PMS_P1;PMS_P2;Temp;Humidity;BMP_temperature;BMP_pressure;BME280_temperature;BME280_humidity;BME280_pressure;Samples;Min_cycle;Max_cycle;Signal;HPM_P1;HPM_P2
2023/04/13 00:01:21;;;;;;;1.10;0.70;;;5.80;99.90;;;;;;5069553;28;20203;-67
2023/04/13 00:03:47;;;;;;;1.00;0.90;;;5.80;99.90;;;;;;5070237;28;20207;-67
2023/04/13 00:06:14;;;;;;;1.65;0.93;;;5.80;99.90;;;;;;5069773;28;20226;-67
2023/04/13 00:08:43;;;;;;;0.85;0.75;;;5.80;99.90;;;;;;5070021;28;20200;-67
2023/04/13 00:11:11;;;;;;;1.17;1.05;;;5.80;99.90;;;;;;5069576;28;20200;-66
2023/04/13 00:13:39;;;;;;;0.80;0.68;;;5.80;99.90;;;;;;5069907;28;20205;-67
2023/04/13 00:16:08;;;;;;;0.80;0.70;;;5.80;99.90;;;;;;5069785;28;20319;-66
2023/04/13 00:18:34;;;;;;;0.80;0.80;;;5.70;99.90;;;;;;5069686;28;20980;-67
2023/04/13 00:21:02;;;;;;;1.15;0.80;;;5.70;99.90;;;;;;5069798;28;20223;-66
2023/04/13 00:23:28;;;;;;;0.80;0.70;;;5.70;99.90;;;;;;5069391;28;20196;-67
2023/04/13 00:25:57;;;;;;;1.30;0.90;;;5.70;99.90;;;;;;5123791;22;20243;-69
2023/04/13 00:28:24;;;;;;;0.90;0.70;;;5.70;99.90;;;;;;5048027;28;20205;-68
2023/04/13 00:30:51;;;;;;;1.00;0.80;;;5.70;99.90;;;;;;5049171;28;20593;-69
2023/04/13 00:33:18;;;;;;;0.90;0.73;;;5.70;99.90;;;;;;5049138;28;20205;-68
2023/04/13 00:35:44;;;;;;;1.20;0.95;;;5.60;99.90;;;;;;5049441;28;20201;-68
2023/04/13 00:38:11;;;;;;;1.90;0.90;;;5.60;99.90;;;;;;5048790;28;20324;-68
2023/04/13 00:40:38;;;;;;;1.70;0.80;;;5.70;99.90;;;;;;5061849;28;20258;-68
2023/04/13 00:43:06;;;;;;;1.30;0.98;;;5.70;99.90;;;;;;5069134;28;20598;-66
2023/04/13 00:45:37;;;;;;;0.90;0.80;;;5.70;99.90;;;;;;5049297;28;20209;-68
2023/04/13 00:48:05;;;;;;;0.90;0.70;;;5.60;99.90;;;;;;5049129;28;20226;-68
2023/04/13 00:50:33;;;;;;;0.80;0.70;;;5.60;99.90;;;;;;5049077;28;20196;-68
2023/04/13 00:53:00;;;;;;;1.02;0.93;;;5.60;99.90;;;;;;5064878;28;20224;-68
2023/04/13 00:55:27;;;;;;;0.80;0.70;;;5.60;99.90;;;;;;5070845;28;20594;-68
2023/04/13 00:57:54;;;;;;;1.00;0.82;;;5.60;99.90;;;;;;5072835;28;20713;-68
2023/04/13 01:00:24;;;;;;;1.27;0.90;;;5.60;99.90;;;;;;5072060;28;20278;-68
2023/04/13 01:02:51;;;;;;;0.80;0.70;;;5.60;99.90;;;;;;5072719;28;20645;-68
2023/04/13 01:05:18;;;;;;;0.80;0.70;;;5.50;99.90;;;;;;5072469;28;20675;-68
2023/04/13 01:07:54;;;;;;;0.90;0.70;;;5.50;99.90;;;;;;5072386;28;20216;-69
2023/04/13 01:10:25;;;;;;;0.98;0.70;;;5.50;99.90;;;;;;5072137;28;20196;-68
2023/04/13 01:13:00;;;;;;;0.93;0.80;;;5.40;99.90;;;;;;5072592;28;20231;-68
2023/04/13 01:15:31;;;;;;;1.25;1.00;;;5.40;99.90;;;;;;5072525;28;20208;-68
2023/04/13 01:18:04;;;;;;;0.90;0.80;;;5.40;99.90;;;;;;5072442;28;20224;-68
2023/04/13 01:20:32;;;;;;;1.27;0.95;;;5.40;99.90;;;;;;5071960;28;20217;-68
2023/04/13 01:23:02;;;;;;;1.10;0.75;;;5.40;99.90;;;;;;5072284;28;20200;-68
2023/04/13 01:25:37;;;;;;;0.95;0.80;;;5.40;99.90;;;;;;5072036;28;20216;-68
2023/04/13 01:28:08;;;;;;;1.23;1.13;;;5.40;99.90;;;;;;5071898;28;20219;-68
2023/04/13 01:30:36;;;;;;;1.05;0.90;;;5.40;99.90;;;;;;5071806;28;20206;-68
2023/04/13 01:33:04;;;;;;;1.00;0.80;;;5.30;99.90;;;;;;5064557;28;20197;-68
2023/04/13 01:35:32;;;;;;;1.02;0.93;;;5.30;99.90;;;;;;5051983;28;20216;-68
2023/04/13 01:37:59;;;;;;;1.10;0.70;;;5.20;99.90;;;;;;5051859;28;20263;-68
2023/04/13 01:40:27;;;;;;;1.17;0.95;;;5.20;99.90;;;;;;5051504;28;20703;-68
2023/04/13 01:42:53;;;;;;;1.17;0.90;;;5.20;99.90;;;;;;5052151;28;20263;-68
2023/04/13 01:45:24;;;;;;;1.50;1.20;;;5.10;99.90;;;;;;5051827;28;20279;-68
2023/04/13 01:47:59;;;;;;;1.42;1.05;;;5.10;99.90;;;;;;5051773;28;20225;-68
2023/04/13 01:50:28;;;;;;;0.90;0.70;;;5.10;99.90;;;;;;5051589;28;20632;-68
2023/04/13 01:53:00;;;;;;;0.90;0.80;;;5.10;99.90;;;;;;5051786;28;20209;-68
2023/04/13 01:55:29;;;;;;;1.33;0.90;;;5.00;99.90;;;;;;5051771;28;20209;-68
2023/04/13 01:57:58;;;;;;;2.40;0.88;;;5.00;99.90;;;;;;5051672;28;20217;-68
2023/04/13 02:00:32;;;;;;;1.10;0.98;;;5.00;99.90;;;;;;5051048;28;20595;-67
2023/04/13 02:02:58;;;;;;;0.80;0.70;;;5.00;99.90;;;;;;5051476;28;20292;-67
2023/04/13 02:05:26;;;;;;;1.00;0.80;;;5.00;99.90;;;;;;5051212;28;20205;-68
2023/04/13 02:07:53;;;;;;;0.80;0.60;;;5.00;99.90;;;;;;5051342;28;20224;-67
2023/04/13 02:10:21;;;;;;;1.00;0.90;;;5.00;99.90;;;;;;5051066;28;20715;-68
2023/04/13 02:12:48;;;;;;;0.88;0.80;;;5.00;99.90;;;;;;5051806;28;20296;-68
2023/04/13 02:15:15;;;;;;;1.70;0.93;;;4.90;99.90;;;;;;5068353;28;20204;-68
2023/04/13 02:17:43;;;;;;;0.90;0.80;;;5.00;99.90;;;;;;5071163;28;20271;-68
2023/04/13 02:20:11;;;;;;;1.35;0.80;;;4.90;99.90;;;;;;5070995;28;20216;-68
2023/04/13 02:22:40;;;;;;;0.90;0.80;;;5.00;99.90;;;;;;5051597;28;20691;-67
2023/04/13 02:25:10;;;;;;;1.70;0.85;;;5.00;99.90;;;;;;5051115;28;20258;-68
2023/04/13 02:27:37;;;;;;;1.05;0.77;;;5.00;99.90;;;;;;5051181;28;20225;-68
2023/04/13 02:30:05;;;;;;;0.80;0.80;;;5.00;99.90;;;;;;5050632;28;20204;-67
2023/04/13 02:32:31;;;;;;;2.72;0.95;;;5.00;99.90;;;;;;5051111;28;20209;-68
2023/04/13 02:35:00;;;;;;;1.05;0.95;;;5.00;99.90;;;;;;5050942;28;20591;-67
2023/04/13 02:37:28;;;;;;;1.25;1.15;;;5.10;99.90;;;;;;5050655;28;20225;-68
2023/04/13 02:39:55;;;;;;;0.80;0.70;;;5.10;99.90;;;;;;5050594;28;20714;-68
2023/04/13 02:42:22;;;;;;;1.00;0.82;;;5.10;99.90;;;;;;5068655;28;20207;-68
2023/04/13 02:44:49;;;;;;;3.25;1.10;;;5.10;99.90;;;;;;5071083;28;20287;-68
2023/04/13 02:47:16;;;;;;;1.90;1.25;;;5.00;99.90;;;;;;5070278;28;20244;-67
2023/04/13 02:49:44;;;;;;;1.35;1.08;;;5.00;99.90;;;;;;5066481;28;20193;-67
2023/04/13 02:52:12;;;;;;;1.00;0.80;;;5.00;99.90;;;;;;5050918;28;20240;-68
2023/04/13 02:54:39;;;;;;;0.90;0.80;;;5.00;99.90;;;;;;5050658;28;20213;-67
2023/04/13 02:57:06;;;;;;;1.10;0.80;;;4.90;99.90;;;;;;5050181;28;20270;-68
2023/04/13 02:59:33;;;;;;;2.95;1.30;;;4.90;99.90;;;;;;5050271;28;20598;-68
2023/04/13 03:02:00;;;;;;;1.02;0.90;;;4.80;99.90;;;;;;5050597;28;20201;-67
2023/04/13 03:04:27;;;;;;;2.75;1.08;;;4.80;99.90;;;;;;5050141;28;20251;-68
2023/04/13 03:06:55;;;;;;;0.90;0.73;;;4.80;99.90;;;;;;5051641;28;20225;-67
2023/04/13 03:09:23;;;;;;;1.10;0.82;;;4.80;99.90;;;;;;5067415;28;20203;-67
2023/04/13 03:11:50;;;;;;;1.08;0.80;;;4.80;99.90;;;;;;5070447;28;20274;-67
2023/04/13 03:14:20;;;;;;;1.00;0.90;;;4.80;99.90;;;;;;5070184;28;20204;-68
2023/04/13 03:16:47;;;;;;;1.85;1.00;;;4.80;99.90;;;;;;5065580;28;20245;-69
2023/04/13 03:19:15;;;;;;;2.28;0.90;;;4.80;99.90;;;;;;5049221;28;20205;-68
2023/04/13 03:21:43;;;;;;;1.23;0.98;;;4.90;99.90;;;;;;5062205;28;20286;-68
2023/04/13 03:24:11;;;;;;;1.10;0.90;;;4.90;99.90;;;;;;5069977;28;20235;-68
2023/04/13 03:26:39;;;;;;;1.00;0.88;;;4.80;99.90;;;;;;5069538;28;20229;-68
2023/04/13 03:29:06;;;;;;;1.98;0.90;;;4.80;99.90;;;;;;5066869;28;20204;-68
2023/04/13 03:31:33;;;;;;;1.60;0.90;;;4.80;99.90;;;;;;5064008;28;20593;-69
2023/04/13 03:34:00;;;;;;;1.15;1.00;;;4.80;99.90;;;;;;5056518;28;20238;-68
2023/04/13 03:36:27;;;;;;;1.42;1.05;;;4.90;99.90;;;;;;5057058;28;20303;-68
2023/04/13 03:38:54;;;;;;;0.95;0.80;;;4.90;99.90;;;;;;5058805;28;20697;-68
2023/04/13 03:41:21;;;;;;;1.30;1.00;;;4.90;99.90;;;;;;5058196;28;20224;-68
2023/04/13 03:43:49;;;;;;;1.27;0.80;;;5.00;99.90;;;;;;5057432;28;20205;-68
2023/04/13 03:46:16;;;;;;;1.13;1.00;;;5.00;99.90;;;;;;5058040;28;20228;-69
2023/04/13 03:48:43;;;;;;;1.27;0.90;;;5.00;99.90;;;;;;5057874;28;20208;-68
2023/04/13 03:51:10;;;;;;;2.17;1.10;;;5.00;99.90;;;;;;5055898;28;20690;-68
2023/04/13 03:53:37;;;;;;;1.85;1.00;;;4.90;99.90;;;;;;5061777;28;20208;-69
2023/04/13 03:56:05;;;;;;;2.00;1.00;;;4.90;99.90;;;;;;5058736;28;20224;-69
2023/04/13 03:58:31;;;;;;;3.83;1.30;;;4.90;99.90;;;;;;5057313;28;20198;-69
2023/04/13 04:00:59;;;;;;;0.90;0.80;;;4.90;99.90;;;;;;5058070;28;20208;-69
2023/04/13 04:03:26;;;;;;;1.05;0.95;;;4.90;99.90;;;;;;5059118;28;20292;-68
2023/04/13 04:05:53;;;;;;;2.15;0.90;;;4.90;99.90;;;;;;5057567;28;20204;-68
2023/04/13 04:08:20;;;;;;;2.25;1.00;;;5.00;99.90;;;;;;5058230;28;20625;-68
2023/04/13 04:10:46;;;;;;;1.20;0.88;;;5.00;99.90;;;;;;5056964;28;20200;-68
2023/04/13 04:13:13;;;;;;;1.00;0.88;;;5.00;99.90;;;;;;5059870;28;20209;-68
2023/04/13 04:15:40;;;;;;;1.30;1.05;;;5.00;99.90;;;;;;5059378;28;20604;-68
2023/04/13 04:18:08;;;;;;;1.27;0.95;;;5.00;99.90;;;;;;5058981;28;20203;-68
2023/04/13 04:20:35;;;;;;;1.45;0.80;;;5.00;99.90;;;;;;5057608;28;20220;-68
2023/04/13 04:23:03;;;;;;;1.42;1.10;;;5.10;99.90;;;;;;5059735;28;20467;-67
2023/04/13 04:25:32;;;;;;;1.33;1.05;;;5.10;99.90;;;;;;5056815;28;20208;-68
2023/04/13 04:28:01;;;;;;;1.15;0.85;;;5.10;99.90;;;;;;5060663;28;20245;-68
2023/04/13 04:30:29;;;;;;;1.85;1.30;;;5.10;99.90;;;;;;5062322;28;20225;-68
2023/04/13 04:32:56;;;;;;;2.05;1.25;;;5.10;99.90;;;;;;5070383;28;20288;-68
2023/04/13 04:35:31;;;;;;;3.03;0.90;;;5.20;99.90;;;;;;5061914;28;20201;-67
2023/04/13 04:37:59;;;;;;;3.58;1.30;;;5.20;99.90;;;;;;5050961;28;20240;-68
2023/04/13 04:40:27;;;;;;;1.10;0.90;;;5.20;99.90;;;;;;5069140;28;20220;-68
2023/04/13 04:42:53;;;;;;;1.83;0.80;;;5.20;99.90;;;;;;5073430;28;20199;-67
2023/04/13 04:45:20;;;;;;;1.08;0.95;;;5.20;99.90;;;;;;5064861;28;20255;-67
2023/04/13 04:47:48;;;;;;;1.33;0.90;;;5.20;99.90;;;;;;5052770;28;20708;-68
2023/04/13 04:50:16;;;;;;;1.10;1.00;;;5.30;99.90;;;;;;5052849;28;20233;-67
2023/04/13 04:52:44;;;;;;;1.45;0.98;;;5.20;99.90;;;;;;5052899;28;20201;-68
2023/04/13 04:55:11;;;;;;;1.52;1.10;;;5.30;99.90;;;;;;5052836;28;20228;-67
2023/04/13 04:57:38;;;;;;;1.38;1.02;;;5.30;99.90;;;;;;5052595;28;20221;-67
2023/04/13 05:00:09;;;;;;;1.02;0.80;;;5.30;99.90;;;;;;5052557;28;20220;-66
2023/04/13 05:02:35;;;;;;;1.15;1.05;;;5.40;99.90;;;;;;5052777;28;20201;-67
2023/04/13 05:05:02;;;;;;;1.40;0.88;;;5.30;99.90;;;;;;5052765;28;20206;-68
2023/04/13 05:07:29;;;;;;;3.20;1.30;;;5.30;99.90;;;;;;5052357;28;20221;-68
2023/04/13 05:09:57;;;;;;;1.25;1.02;;;5.30;99.90;;;;;;5061148;28;20224;-67
2023/04/13 05:12:24;;;;;;;2.03;0.90;;;5.40;99.90;;;;;;5069427;28;20203;-68
2023/04/13 05:14:50;;;;;;;2.53;1.45;;;5.30;99.90;;;;;;5065510;28;20197;-68
2023/04/13 05:17:17;;;;;;;1.92;1.02;;;5.40;99.90;;;;;;5072484;28;20222;-68
2023/04/13 05:19:44;;;;;;;2.08;1.23;;;5.40;99.90;;;;;;5072031;28;20192;-67
2023/04/13 05:22:11;;;;;;;1.35;0.95;;;5.40;99.90;;;;;;5072639;28;20235;-68
2023/04/13 05:24:39;;;;;;;1.60;1.20;;;5.40;99.90;;;;;;5072438;28;20228;-68
2023/04/13 05:27:07;;;;;;;3.90;1.40;;;5.50;99.90;;;;;;5072330;28;20269;-68
2023/04/13 05:29:34;;;;;;;2.15;1.20;;;5.40;99.90;;;;;;5072263;28;20228;-68
2023/04/13 05:32:01;;;;;;;1.15;1.00;;;5.40;99.90;;;;;;5072280;28;20242;-68
2023/04/13 05:34:28;;;;;;;2.78;1.35;;;5.40;99.90;;;;;;5072393;28;20200;-67
2023/04/13 05:36:56;;;;;;;1.77;1.40;;;5.40;99.90;;;;;;5072235;28;20216;-67
2023/04/13 05:39:23;;;;;;;3.28;1.20;;;5.50;99.90;;;;;;5072066;28;20209;-68
2023/04/13 05:41:50;;;;;;;1.58;1.10;;;5.40;99.90;;;;;;5071745;28;20293;-68
2023/04/13 05:44:18;;;;;;;1.67;1.00;;;5.50;99.90;;;;;;5072150;28;20621;-68
2023/04/13 05:46:46;;;;;;;1.27;0.80;;;5.50;99.90;;;;;;5071810;28;20213;-68
2023/04/13 05:49:12;;;;;;;1.70;1.00;;;5.50;99.90;;;;;;5071974;28;20201;-67
2023/04/13 05:51:39;;;;;;;1.98;0.90;;;5.60;99.90;;;;;;5072084;28;20197;-68
2023/04/13 05:54:08;;;;;;;1.10;1.00;;;5.60;99.90;;;;;;5069754;28;20197;-68
2023/04/13 05:56:35;;;;;;;3.55;1.30;;;5.60;99.90;;;;;;5054845;28;20245;-68
2023/04/13 05:59:03;;;;;;;2.65;1.15;;;5.60;99.90;;;;;;5071501;28;20227;-68
2023/04/13 06:01:31;;;;;;;1.73;1.10;;;5.50;99.90;;;;;;5071108;28;20217;-68
2023/04/13 06:03:58;;;;;;;5.35;1.30;;;5.60;99.90;;;;;;5071746;28;20208;-68
2023/04/13 06:06:25;;;;;;;2.55;1.15;;;5.60;99.90;;;;;;5063382;28;20224;-68
2023/04/13 06:08:52;;;;;;;2.67;1.00;;;5.60;99.90;;;;;;5071857;28;20201;-68
2023/04/13 06:11:20;;;;;;;2.95;1.08;;;5.70;99.90;;;;;;5071240;28;20614;-68
2023/04/13 06:13:46;;;;;;;1.80;1.08;;;5.90;99.90;;;;;;5071725;28;20231;-68
2023/04/13 06:16:14;;;;;;;1.60;0.90;;;6.00;99.90;;;;;;5071231;28;20224;-68
2023/04/13 06:18:42;;;;;;;1.50;1.02;;;6.00;99.90;;;;;;5071402;28;20253;-67
2023/04/13 06:21:08;;;;;;;1.40;1.08;;;5.90;99.90;;;;;;5071065;28;20213;-68
2023/04/13 06:23:36;;;;;;;1.13;0.90;;;6.00;99.90;;;;;;5071386;28;20193;-68
2023/04/13 06:26:03;;;;;;;3.38;1.50;;;6.00;99.90;;;;;;5082980;22;20221;-94
2023/04/13 06:28:30;;;;;;;3.88;0.93;;;6.00;99.90;;;;;;5045637;22;20273;-67
2023/04/13 06:30:57;;;;;;;2.00;1.38;;;6.10;99.90;;;;;;5050648;28;20215;-65
2023/04/13 06:33:25;;;;;;;2.28;1.02;;;6.10;99.90;;;;;;5051617;28;20200;-66
2023/04/13 06:35:53;;;;;;;5.38;1.25;;;6.10;99.90;;;;;;5051407;28;20319;-67
2023/04/13 06:38:19;;;;;;;1.85;1.55;;;6.00;99.90;;;;;;5051507;28;20684;-67
2023/04/13 06:40:46;;;;;;;1.00;0.90;;;6.10;99.90;;;;;;5050573;28;20217;-66
2023/04/13 06:43:13;;;;;;;1.65;0.90;;;6.10;99.90;;;;;;5057801;28;20197;-66
2023/04/13 06:45:39;;;;;;;2.67;1.15;;;6.00;99.90;;;;;;5061213;28;20209;-67
2023/04/13 06:48:06;;;;;;;1.98;0.90;;;6.10;99.90;;;;;;5051540;28;20204;-67
2023/04/13 06:50:33;;;;;;;1.10;1.00;;;6.10;99.90;;;;;;5051627;28;20200;-66
2023/04/13 06:53:01;;;;;;;2.35;1.00;;;6.00;99.90;;;;;;5062427;28;20197;-66
2023/04/13 06:55:28;;;;;;;1.65;1.25;;;6.10;99.90;;;;;;5066981;28;20633;-66
2023/04/13 06:57:54;;;;;;;2.25;0.98;;;6.20;99.90;;;;;;5067923;28;20575;-67
2023/04/13 07:00:21;;;;;;;1.48;1.00;;;6.30;99.90;;;;;;5050585;28;20212;-67
2023/04/13 07:02:48;;;;;;;1.52;1.10;;;6.50;99.90;;;;;;5050398;28;20212;-69
2023/04/13 07:05:15;;;;;;;2.90;1.30;;;6.80;99.90;;;;;;5052296;28;20205;-69
2023/04/13 07:07:42;;;;;;;0.90;0.70;;;7.00;99.90;;;;;;5067387;28;20216;-68
2023/04/13 07:10:10;;;;;;;1.60;0.93;;;7.20;99.90;;;;;;5050744;28;20197;-67
2023/04/13 07:12:37;;;;;;;1.70;1.02;;;7.20;99.90;;;;;;5050442;28;20563;-67
2023/04/13 07:15:05;;;;;;;1.52;1.10;;;7.10;99.90;;;;;;5050086;28;20216;-67
2023/04/13 07:17:32;;;;;;;3.75;1.15;;;7.00;99.90;;;;;;5050285;28;20899;-67
2023/04/13 07:19:59;;;;;;;4.15;1.38;;;6.90;99.90;;;;;;5049894;28;20193;-67
2023/04/13 07:22:30;;;;;;;1.90;1.17;;;6.70;99.90;;;;;;5066340;28;20220;-67
2023/04/13 07:24:57;;;;;;;1.27;0.90;;;6.70;99.90;;;;;;5062126;28;20223;-67
2023/04/13 07:27:25;;;;;;;1.27;1.10;;;6.60;99.90;;;;;;5054404;28;20223;-67
2023/04/13 07:29:52;;;;;;;3.08;1.00;;;6.60;99.90;;;;;;5060541;28;20209;-67
2023/04/13 07:32:19;;;;;;;1.38;1.10;;;6.70;99.90;;;;;;5063799;28;20202;-66
2023/04/13 07:34:46;;;;;;;1.25;1.10;;;6.70;99.90;;;;;;5067349;28;20196;-68
2023/04/13 07:37:13;;;;;;;0.98;0.80;;;6.70;99.90;;;;;;5069913;28;20216;-67
2023/04/13 07:39:40;;;;;;;1.17;1.00;;;6.70;99.90;;;;;;5069149;28;20204;-67
2023/04/13 07:42:07;;;;;;;2.00;1.30;;;6.80;99.90;;;;;;5070388;28;20213;-67
2023/04/13 07:44:35;;;;;;;1.45;1.08;;;6.80;99.90;;;;;;5052766;28;20568;-67
2023/04/13 07:47:02;;;;;;;2.05;1.20;;;6.80;99.90;;;;;;5050441;28;20231;-67
2023/04/13 07:49:29;;;;;;;4.15;1.60;;;6.70;99.90;;;;;;5063870;28;20674;-68
2023/04/13 07:51:56;;;;;;;2.75;1.00;;;6.80;99.90;;;;;;5066092;28;20223;-66
2023/04/13 07:54:22;;;;;;;2.75;1.20;;;6.80;99.90;;;;;;5058556;28;20208;-67
2023/04/13 07:56:49;;;;;;;5.28;1.50;;;6.80;99.90;;;;;;5049682;28;20221;-67
2023/04/13 07:59:16;;;;;;;1.80;1.15;;;6.90;99.90;;;;;;5049476;28;20197;-67
2023/04/13 08:01:44;;;;;;;2.95;1.58;;;6.80;99.90;;;;;;5049713;28;20228;-67
2023/04/13 08:04:11;;;;;;;6.35;1.55;;;6.80;99.90;;;;;;5049160;28;20576;-67
2023/04/13 08:06:38;;;;;;;2.72;1.23;;;6.90;99.90;;;;;;5049098;28;20722;-68
2023/04/13 08:09:05;;;;;;;3.22;1.35;;;7.20;99.90;;;;;;5049645;28;20201;-67
2023/04/13 08:11:32;;;;;;;2.38;1.20;;;7.50;99.90;;;;;;5049619;28;20205;-66
2023/04/13 08:13:59;;;;;;;1.70;1.40;;;7.90;99.90;;;;;;5049129;28;20197;-67
2023/04/13 08:16:32;;;;;;;3.20;1.55;;;8.10;99.90;;;;;;5056700;28;20786;-67
2023/04/13 08:19:01;;;;;;;3.60;1.10;;;8.10;99.90;;;;;;5069696;28;20228;-68
2023/04/13 08:21:36;;;;;;;2.90;1.33;;;8.20;99.90;;;;;;5069009;28;20603;-67
2023/04/13 08:24:03;;;;;;;2.75;1.20;;;8.60;99.90;;;;;;5042030;28;20228;-68
2023/04/13 08:26:29;;;;;;;2.58;1.30;;;9.00;99.90;;;;;;5049407;28;20219;-66
2023/04/13 08:28:56;;;;;;;3.78;1.38;;;8.90;99.90;;;;;;5048471;28;20231;-68
2023/04/13 08:31:23;;;;;;;2.90;1.45;;;8.70;99.90;;;;;;5064889;28;20290;-67
2023/04/13 08:33:49;;;;;;;11.40;1.60;;;8.70;99.90;;;;;;5068912;28;20421;-68
2023/04/13 08:36:17;;;;;;;1.80;1.10;;;8.50;99.90;;;;;;5069178;28;20220;-67
2023/04/13 08:38:45;;;;;;;2.55;1.15;;;8.40;99.90;;;;;;5051098;28;20201;-68
2023/04/13 08:41:12;;;;;;;1.85;1.40;;;8.40;99.90;;;;;;5049005;28;20229;-67
2023/04/13 08:43:39;;;;;;;4.72;1.25;;;8.30;99.90;;;;;;5048730;28;20208;-68
2023/04/13 08:46:06;;;;;;;2.65;1.17;;;8.30;99.90;;;;;;5049447;28;20271;-67
2023/04/13 08:48:34;;;;;;;3.15;1.45;;;9.00;99.90;;;;;;5049026;28;20611;-68
2023/04/13 08:51:04;;;;;;;1.55;0.85;;;9.40;99.90;;;;;;5047840;28;20236;-68
2023/04/13 08:53:32;;;;;;;3.97;1.35;;;9.50;99.90;;;;;;5048743;28;20280;-68
2023/04/13 08:56:01;;;;;;;1.30;1.20;;;9.60;99.90;;;;;;5051619;28;20285;-67
2023/04/13 08:58:30;;;;;;;2.90;1.23;;;9.80;99.90;;;;;;5053312;28;20212;-68
2023/04/13 09:00:57;;;;;;;5.57;1.25;;;9.60;99.90;;;;;;5048404;28;20295;-67
2023/04/13 09:03:27;;;;;;;5.82;1.67;;;9.50;99.90;;;;;;5057864;28;20202;-68
2023/04/13 09:05:58;;;;;;;3.88;1.45;;;9.40;99.90;;;;;;5059226;28;20627;-68
2023/04/13 09:08:26;;;;;;;5.03;1.40;;;9.10;99.90;;;;;;5069504;28;20220;-64
2023/04/13 09:10:57;;;;;;;3.58;1.35;;;8.80;99.90;;;;;;5057882;28;20201;-68
2023/04/13 09:13:23;;;;;;;2.65;1.15;;;8.50;99.90;;;;;;5057629;28;20581;-68
2023/04/13 09:15:51;;;;;;;4.45;1.30;;;8.40;99.90;;;;;;5066561;28;20209;-68
2023/04/13 09:18:17;;;;;;;3.95;1.42;;;8.40;99.90;;;;;;5066413;28;20239;-68
2023/04/13 09:20:55;;;;;;;2.38;1.40;;;8.40;99.90;;;;;;5072205;28;20201;-67
2023/04/13 09:23:22;;;;;;;2.65;1.10;;;8.70;99.90;;;;;;5064624;28;20760;-68
2023/04/13 09:25:49;;;;;;;1.75;1.30;;;9.50;99.90;;;;;;5054058;28;20207;-67
2023/04/13 09:28:18;;;;;;;3.42;1.00;;;10.60;99.90;;;;;;5052196;28;20197;-65
2023/04/13 09:30:45;;;;;;;1.52;0.90;;;11.70;99.90;;;;;;5052770;28;20427;-66
2023/04/13 09:33:14;;;;;;;1.52;1.17;;;12.30;99.90;;;;;;5067528;28;20200;-66
2023/04/13 09:35:41;;;;;;;4.13;1.27;;;12.30;99.90;;;;;;5052738;28;20337;-66
2023/04/13 09:38:10;;;;;;;1.58;1.15;;;11.80;99.90;;;;;;5072235;28;20261;-65
2023/04/13 09:40:48;;;;;;;2.45;1.00;;;11.70;99.90;;;;;;5064040;28;20201;-67
2023/04/13 09:43:17;;;;;;;2.60;1.23;;;11.80;99.90;;;;;;5066834;28;20221;-67
2023/04/13 09:45:44;;;;;;;1.27;0.88;;;12.00;99.90;;;;;;5061278;28;20243;-68
2023/04/13 09:48:17;;;;;;;3.03;1.50;;;11.80;99.90;;;;;;5064133;28;20228;-66
2023/04/13 09:50:44;;;;;;;2.60;1.30;;;11.50;99.50;;;;;;5062492;28;20259;-66
2023/04/13 09:53:11;;;;;;;6.50;1.70;;;10.90;99.90;;;;;;5064312;28;20197;-66
2023/04/13 09:55:38;;;;;;;3.75;1.35;;;10.50;99.90;;;;;;5072277;28;20583;-66
2023/04/13 09:58:09;;;;;;;3.60;1.35;;;10.00;99.90;;;;;;5071783;28;20243;-68
2023/04/13 10:00:38;;;;;;;3.25;1.20;;;9.70;99.90;;;;;;5055667;28;20204;-68
2023/04/13 10:03:09;;;;;;;2.17;1.67;;;9.40;99.90;;;;;;5047341;28;20209;-68
2023/04/13 10:05:37;;;;;;;1.30;1.17;;;9.30;99.90;;;;;;5072129;28;20591;-69
2023/04/13 10:08:05;;;;;;;1.10;0.95;;;9.40;99.90;;;;;;5051454;28;20213;-68
2023/04/13 10:10:32;;;;;;;5.13;1.60;;;9.40;99.90;;;;;;5051351;28;20201;-68
2023/04/13 10:13:04;;;;;;;1.60;1.10;;;9.40;99.90;;;;;;5051389;28;20197;-69
2023/04/13 10:15:43;;;;;;;1.65;1.10;;;9.40;99.90;;;;;;5051711;28;20200;-66
2023/04/13 10:18:21;;;;;;;3.28;1.55;;;9.80;99.90;;;;;;5043906;28;20547;-66
2023/04/13 10:20:49;;;;;;;6.55;1.20;;;10.20;99.90;;;;;;5051140;28;20626;-65
2023/04/13 10:23:17;;;;;;;2.22;1.48;;;10.40;99.90;;;;;;5051557;28;20300;-66
2023/04/13 10:25:50;;;;;;;1.30;1.20;;;10.60;99.90;;;;;;5050995;28;20212;-65
2023/04/13 10:28:17;;;;;;;4.53;1.42;;;10.20;99.90;;;;;;5051213;28;20219;-68
2023/04/13 10:30:50;;;;;;;2.70;1.20;;;9.90;99.90;;;;;;5050711;28;20208;-67
2023/04/13 10:33:17;;;;;;;2.97;1.63;;;10.00;99.90;;;;;;5054438;28;20679;-65
2023/04/13 10:35:55;;;;;;;0.98;0.82;;;10.10;99.90;;;;;;5061968;28;20205;-67
2023/04/13 10:38:22;;;;;;;1.95;1.30;;;10.40;99.90;;;;;;5050619;28;20220;-65
2023/04/13 10:40:48;;;;;;;2.35;1.25;;;10.70;99.90;;;;;;5066275;28;20695;-66
2023/04/13 10:43:26;;;;;;;2.67;1.40;;;10.50;99.90;;;;;;5055641;28;20619;-65
2023/04/13 10:46:06;;;;;;;1.80;1.35;;;10.30;99.90;;;;;;5070486;28;20203;-66
2023/04/13 10:48:33;;;;;;;2.38;1.42;;;10.10;99.90;;;;;;5063421;28;20204;-66
2023/04/13 10:51:00;;;;;;;3.83;1.27;;;10.20;99.90;;;;;;5058459;28;20212;-66
2023/04/13 10:53:29;;;;;;;1.48;1.38;;;10.30;99.20;;;;;;5064826;28;20218;-65
2023/04/13 10:55:57;;;;;;;7.47;1.90;;;10.40;99.20;;;;;;5069767;28;20205;-66
2023/04/13 10:58:25;;;;;;;1.00;0.90;;;10.80;99.60;;;;;;5062461;28;20242;-66
2023/04/13 11:00:53;;;;;;;2.55;1.20;;;11.10;98.90;;;;;;5061860;28;20233;-66
2023/04/13 11:03:21;;;;;;;1.70;1.33;;;11.20;98.50;;;;;;5056870;28;20315;-69
2023/04/13 11:05:56;;;;;;;1.17;1.00;;;11.30;99.00;;;;;;5058696;28;20212;-66
2023/04/13 11:08:23;;;;;;;3.03;1.23;;;11.30;99.20;;;;;;5056096;28;20299;-66
2023/04/13 11:10:51;;;;;;;3.22;1.58;;;11.20;99.70;;;;;;5061549;28;20262;-67
2023/04/13 11:13:18;;;;;;;3.28;1.42;;;10.90;99.70;;;;;;5057283;28;20197;-66
2023/04/13 11:15:45;;;;;;;2.95;1.30;;;10.50;99.90;;;;;;5050417;28;20208;-66
2023/04/13 11:18:12;;;;;;;2.92;1.30;;;10.30;99.90;;;;;;5061401;28;20561;-66
2023/04/13 11:20:40;;;;;;;1.20;1.00;;;10.20;99.90;;;;;;5070295;28;20579;-66
2023/04/13 11:23:16;;;;;;;3.78;1.50;;;10.10;99.90;;;;;;5061600;28;20259;-66
2023/04/13 11:25:53;;;;;;;3.08;1.13;;;10.20;99.90;;;;;;5061608;28;20242;-66
2023/04/13 11:28:21;;;;;;;4.20;1.35;;;10.40;99.90;;;;;;5069894;28;20677;-67
2023/04/13 11:30:57;;;;;;;6.22;1.48;;;10.50;99.90;;;;;;5060290;28;20211;-66
2023/04/13 11:33:28;;;;;;;16.60;2.03;;;10.50;99.90;;;;;;5049914;28;20196;-66
2023/04/13 11:35:58;;;;;;;1.40;1.23;;;10.60;99.90;;;;;;5049704;28;20642;-67
2023/04/13 11:38:26;;;;;;;1.98;1.00;;;10.70;99.90;;;;;;5049353;28;20274;-66
2023/04/13 11:40:53;;;;;;;1.55;0.90;;;10.60;99.90;;;;;;5058533;28;20200;-66
2023/04/13 11:43:20;;;;;;;1.70;0.90;;;10.60;99.90;;;;;;5056106;28;21182;-66
2023/04/13 11:45:46;;;;;;;1.20;0.90;;;10.40;99.90;;;;;;5049238;28;20200;-66
2023/04/13 11:48:14;;;;;;;2.17;1.40;;;10.20;99.90;;;;;;5049273;28;20220;-66
2023/04/13 11:50:41;;;;;;;1.33;1.10;;;10.20;99.90;;;;;;5049456;28;20216;-67
2023/04/13 11:53:10;;;;;;;2.28;1.35;;;10.00;99.90;;;;;;5049099;28;20193;-66
2023/04/13 11:55:38;;;;;;;4.78;1.20;;;10.00;99.90;;;;;;5049544;28;20205;-66
2023/04/13 11:58:10;;;;;;;2.50;1.45;;;10.10;99.90;;;;;;5060695;28;20250;-66
2023/04/13 12:00:38;;;;;;;1.50;1.20;;;11.10;99.90;;;;;;5069723;28;20201;-66
2023/04/13 12:03:05;;;;;;;1.90;1.30;;;12.80;99.90;;;;;;5052719;28;20298;-67
2023/04/13 12:05:32;;;;;;;2.47;1.10;;;14.10;99.90;;;;;;5049756;28;20201;-67
2023/04/13 12:07:59;;;;;;;1.63;1.10;;;14.80;99.90;;;;;;5049411;28;21034;-67
2023/04/13 12:10:29;;;;;;;3.17;1.70;;;15.10;99.90;;;;;;5049437;28;20463;-67
2023/04/13 12:12:59;;;;;;;2.80;1.40;;;15.60;99.90;;;;;;5049320;28;20466;-66
2023/04/13 12:15:28;;;;;;;2.10;1.50;;;16.00;99.90;;;;;;5049988;28;20466;-67
2023/04/13 12:17:56;;;;;;;2.33;1.57;;;16.30;98.70;;;;;;5048915;28;20490;-67
2023/04/13 12:20:24;;;;;;;1.53;1.20;;;16.20;99.10;;;;;;5049652;28;20466;-67
2023/04/13 12:22:52;;;;;;;1.00;0.90;;;15.60;99.90;;;;;;5056611;28;20519;-66
2023/04/13 12:25:20;;;;;;;1.27;1.10;;;14.20;99.90;;;;;;5052070;28;20466;-66
2023/04/13 12:27:51;;;;;;;3.08;1.20;;;12.90;99.90;;;;;;5048691;28;20483;-65
2023/04/13 12:30:21;;;;;;;1.73;1.40;;;11.80;99.90;;;;;;5048303;28;20200;-66
2023/04/13 12:32:54;;;;;;;1.65;1.30;;;11.20;99.90;;;;;;5048370;28;20478;-65
2023/04/13 12:35:22;;;;;;;1.95;1.63;;;10.20;99.90;;;;;;5048784;28;20200;-66
2023/04/13 12:37:51;;;;;;;2.33;1.58;;;10.40;99.90;;;;;;5048132;28;20308;-66
2023/04/13 12:40:19;;;;;;;1.52;1.10;;;10.90;99.90;;;;;;5048562;28;20558;-66
2023/04/13 12:42:46;;;;;;;3.00;1.77;;;11.80;99.90;;;;;;5048413;28;20229;-65
2023/04/13 12:45:16;;;;;;;3.50;1.60;;;12.50;99.90;;;;;;5051108;28;20275;-65
2023/04/13 12:47:43;;;;;;;1.60;1.05;;;12.70;99.90;;;;;;5069399;28;20262;-66
2023/04/13 12:50:11;;;;;;;2.63;1.00;;;12.20;99.90;;;;;;5068888;28;20211;-66
2023/04/13 12:52:43;;;;;;;2.25;1.23;;;11.90;99.90;;;;;;5072967;28;20204;-66
2023/04/13 12:55:10;;;;;;;1.98;1.00;;;11.60;99.90;;;;;;5066969;28;20201;-66
2023/04/13 12:57:38;;;;;;;2.65;1.00;;;11.50;99.90;;;;;;5060025;28;20236;-66
2023/04/13 13:00:09;;;;;;;3.75;1.15;;;11.30;99.90;;;;;;5051412;28;20205;-66